Flight Track Log - Related Links

Times and Time Zones

All times are in EDT time to prevent confusion due to time zone crossing. See the RPA4886 flight status page for this flight to view local times or setup timezone preferences in your user account.

Time Position Orientation Groundspeed Altitude Reporting Facility
EDT Latitude Longitude Course Direction KTS MPH feet Rate Location/Type
Sat 08:54:35 AM 40.7167 -74.1500 217° Southwest 167 192 1,500  Level New York TRACON
Sat 08:55:35 AM 40.7500 -74.1167 37° Northeast 197 227 3,900 1,286 Climbing New York TRACON
Sat 08:57:00 AM 40.3125 -74.1568 157° South  Level FlightAware Approximate
Sat 08:58:00 AM 40.2141 -74.1787 194° South  Level FlightAware Approximate
Sat 08:58:05 AM 40.6853 -74.2519 238° Southwest 202 232 6,000  Level New York Center
Sat 08:59:00 AM 40.1145 -74.2022 217° Southwest  Level FlightAware Approximate
Sat 08:59:05 AM 40.6164 -74.2622 186° South 250 288 6,000  Level New York Center
Sat 09:00:06 AM 40.5367 -74.2719 185° South 275 316 6,000  Level New York Center
Sat 09:01:07 AM 40.4689 -74.2411 161° South 265 305 6,000 50 Level New York Center
Sat 09:02:07 AM 40.4094 -74.2081 157° South 258 297 6,100  Climbing New York Center
Sat 09:03:06 AM 40.3356 -74.1744 161° South 258 297 6,000 900 Descending New York Center
Sat 09:04:07 AM 40.2706 -74.1875 189° South 258 297 7,900 2,168 Climbing New York Center
Sat 09:05:05 AM 40.1989 -74.2086 193° South 258 297 10,300 2,400 Climbing New York Center
Sat 09:06:07 AM 40.1214 -74.2264 190° South 258 297 12,700 2,000 Climbing New York Center
Sat 09:07:14 AM 40.0372 -74.2447 189° South 255 293 14,600 1,781 Climbing Washington Center
Sat 09:08:15 AM 39.9689 -74.2867 205° Southwest 263 303 16,500 1,686 Climbing Washington Center
Sat 09:09:15 AM 39.9069 -74.3472 217° Southwest 269 310 18,000 1,282 Climbing Washington Center
Sat 09:10:12 AM 39.8431 -74.4078 216° Southwest 286 329 19,000 1,169 Climbing Washington Center
Sat 09:11:13 AM 39.7792 -74.4819 222° Southwest 293 337 20,300 1,328 Climbing Washington Center
Sat 09:12:14 AM 39.7236 -74.5556 226° Southwest 293 337 21,700 1,289 Climbing Washington Center
Sat 09:13:14 AM 39.6681 -74.6319 227° Southwest 293 337 22,900 1,091 Climbing Washington Center
Sat 09:14:15 AM 39.6081 -74.7081 224° Southwest 299 344 23,900 555 Climbing Washington Center
Sat 09:15:13 AM 39.5483 -74.7869 226° Southwest 305 351 24,000 50 Climbing Washington Center
Sat 09:16:14 AM 39.4800 -74.8736 224° Southwest 323 372 24,000  Level Washington Center
Sat 09:17:14 AM 39.4181 -74.9575 226° Southwest 338 389 24,000  Level Washington Center
Sat 09:18:15 AM 39.3456 -75.0547 226° Southwest 362 417 24,000  Level Washington Center
Sat 09:19:13 AM 39.2625 -75.1358 217° Southwest 375 432 24,000  Level Washington Center
Sat 09:20:14 AM 39.1606 -75.1739 196° South 375 432 24,000 -50 Level Washington Center
Sat 09:21:14 AM 39.0586 -75.2094 195° South 380 437 23,900  Descending Washington Center
Sat 09:22:15 AM 38.9567 -75.2581 200° South 386 444 24,000 50 Climbing Washington Center
Sat 09:23:15 AM 38.8567 -75.3011 199° South 386 444 24,000  Level Washington Center
Sat 09:24:13 AM 38.7567 -75.3414 197° South 386 444 24,000  Level Washington Center
Sat 09:25:14 AM 38.6544 -75.3844 198° South 386 444 24,000 -541 Level Washington Center
Sat 09:26:15 AM 38.5567 -75.4244 198° South 386 444 22,900 -1,311 Descending Washington Center
Sat 09:27:13 AM 38.4544 -75.4672 198° South 386 444 21,400 -1,475 Descending Washington Center
Sat 09:28:13 AM 38.3567 -75.5069 198° South 380 437 20,000 -694 Descending Washington Center
Sat 09:29:14 AM 38.2650 -75.5547 202° Southwest 375 432 20,000  Level Washington Center
Sat 09:30:15 AM 38.1772 -75.6156 209° Southwest 364 419 20,000 -353 Level Washington Center
Sat 09:31:13 AM 38.0875 -75.6708 206° Southwest 359 413 19,300 -1,311 Descending Washington Center
Sat 09:32:14 AM 37.9853 -75.7394 208° Southwest 364 419 17,400 -1,884 Descending Washington Center
Sat 09:33:14 AM 37.8978 -75.7917 205° Southwest 364 419 15,500 -1,881 Descending Washington Center
Sat 09:34:12 AM 37.8100 -75.8414 204° Southwest 359 413 13,700 -1,605 Descending Washington Center
Sat 09:34:40 AM 37.7808 -75.8625 210° Southwest 330 380 13,200 -1,636 Descending Washington Center
Sat 09:35:07 AM 37.7347 -75.8886 204° Southwest 328 377 12,200 -1,773 Descending Washington Center
Sat 09:36:08 AM 37.6514 -75.9406 206° Southwest 334 384 10,600 -1,552 Descending Washington Center
Sat 09:37:03 AM 37.5803 -75.9744 201° Southwest 297 342 9,200 -1,527 Descending Washington Center
Sat 09:37:58 AM 37.5114 -76.0108 203° Southwest 283 326 7,800 -1,543 Descending Washington Center
Sat 09:38:13 AM 37.4967 -76.0186 203° Southwest 300 345 7,400 -1,475 Descending Washington Center
Sat 09:38:59 AM 37.4403 -76.0469 202° Southwest 269 310 6,300 -1,377 Descending Washington Center
Sat 09:39:14 AM 37.4256 -76.0547 203° Southwest 288 331 6,000 -1,200 Descending Washington Center
Sat 09:39:59 AM 37.3733 -76.0831 203° Southwest 264 304 5,100 -1,000 Descending Washington Center
Sat 09:40:14 AM 37.3628 -76.0883 202° Southwest 279 321 5,000 -100 Descending Washington Center
Sat 09:40:59 AM 37.3022 -76.1219 204° Southwest 264 304 5,000  Level Washington Center
Sat 09:41:15 AM 37.2981 -76.1269 224° Southwest 272 313 5,000  Level Washington Center
Sat 09:42:00 AM 37.2394 -76.1581 203° Southwest 260 299 5,000  Level Washington Center
Sat 09:42:15 AM 37.2250 -76.1631 195° South 272 313 5,000  Level Washington Center
Sat 09:43:01 AM 37.1725 -76.1967 207° Southwest 263 303 5,000  Level Washington Center
Sat 09:44:01 AM 37.1097 -76.2300 203° Southwest 259 298 5,000  Level Washington Center
Sat 09:45:02 AM 37.0367 -76.2711 204° Southwest 262 302 5,000  Level Washington Center

Login

Don't have an account? Register now (free) for customized features, flight alerts, and more!